Time;durP1;ratioP1;P1;durP2;ratioP2;P2;SDS_P1;SDS_P2;PMS_P1;PMS_P2;Temp;Humidity;BMP_temperature;BMP_pressure;BME280_temperature;BME280_humidity;BME280_pressure;Samples;Min_cycle;Max_cycle;Signal;HPM_P1;HPM_P2
2020/12/16 00:01:04;;;;;;;13.35;9.07;;;22.80;34.10;;;;;;5049693;28;20053;-70
2020/12/16 00:03:32;;;;;;;13.45;9.23;;;22.80;34.10;;;;;;5049345;28;20071;-70
2020/12/16 00:05:59;;;;;;;10.80;8.13;;;22.80;34.10;;;;;;5049939;28;20140;-70
2020/12/16 00:08:25;;;;;;;13.70;9.07;;;22.80;34.10;;;;;;5049978;28;20152;-70
2020/12/16 00:10:52;;;;;;;14.57;9.18;;;22.80;34.20;;;;;;5049673;28;20140;-70
2020/12/16 00:13:18;;;;;;;13.68;9.10;;;22.80;34.10;;;;;;5049873;28;20072;-70
2020/12/16 00:15:48;;;;;;;13.00;8.70;;;22.80;34.10;;;;;;5049345;28;20045;-70
2020/12/16 00:18:15;;;;;;;14.70;9.88;;;22.80;34.00;;;;;;5049647;28;20059;-70
2020/12/16 00:20:42;;;;;;;13.65;9.55;;;22.80;34.00;;;;;;5048644;28;20140;-69
2020/12/16 00:23:10;;;;;;;13.70;8.88;;;22.80;34.00;;;;;;5049618;28;20067;-70
2020/12/16 00:25:37;;;;;;;14.02;9.15;;;22.80;34.00;;;;;;5049621;28;20136;-70
2020/12/16 00:28:04;;;;;;;13.77;9.40;;;22.80;34.00;;;;;;5049952;28;20040;-69
2020/12/16 00:30:30;;;;;;;14.27;9.32;;;22.80;34.00;;;;;;5049835;28;20474;-70
2020/12/16 00:32:57;;;;;;;13.52;9.02;;;22.80;34.00;;;;;;5049616;28;20699;-70
2020/12/16 00:35:24;;;;;;;13.95;9.18;;;22.80;34.00;;;;;;5049057;28;20140;-69
2020/12/16 00:37:50;;;;;;;13.70;9.43;;;22.80;34.00;;;;;;5048161;28;20044;-70
2020/12/16 00:40:17;;;;;;;15.15;10.38;;;22.80;34.00;;;;;;5031838;28;20084;-70
2020/12/16 00:42:48;;;;;;;15.63;9.63;;;22.80;34.00;;;;;;5049111;28;20048;-69
2020/12/16 00:45:16;;;;;;;13.73;9.38;;;22.80;34.10;;;;;;5049480;28;20067;-70
2020/12/16 00:47:42;;;;;;;14.00;8.70;;;22.80;34.00;;;;;;5049062;28;20131;-70
2020/12/16 00:50:11;;;;;;;14.90;9.73;;;22.80;34.10;;;;;;5048914;28;20271;-69
2020/12/16 00:52:52;;;;;;;15.88;9.73;;;22.80;34.10;;;;;;5049012;28;20585;-70
2020/12/16 00:55:19;;;;;;;13.80;9.05;;;22.70;34.00;;;;;;5047695;28;20053;-72
2020/12/16 00:57:47;;;;;;;14.68;9.40;;;22.70;34.10;;;;;;5049453;28;20072;-69
2020/12/16 01:00:15;;;;;;;15.63;9.52;;;22.70;34.00;;;;;;5048171;28;20076;-70
2020/12/16 01:02:46;;;;;;;14.93;9.27;;;22.70;34.00;;;;;;5046893;28;20135;-69
2020/12/16 01:05:15;;;;;;;14.93;9.35;;;22.70;34.00;;;;;;5049254;28;20321;-70
2020/12/16 01:07:42;;;;;;;13.10;9.20;;;22.70;34.00;;;;;;5049325;28;20271;-70
2020/12/16 01:10:10;;;;;;;14.43;9.80;;;22.70;34.00;;;;;;5048796;28;20284;-70
2020/12/16 01:12:41;;;;;;;13.40;9.23;;;22.70;34.00;;;;;;5048412;28;20084;-70
2020/12/16 01:15:11;;;;;;;14.95;9.27;;;22.70;34.00;;;;;;5048982;28;20118;-69
2020/12/16 01:17:39;;;;;;;15.10;9.57;;;22.70;34.00;;;;;;5048272;28;20076;-70
2020/12/16 01:20:08;;;;;;;14.25;9.07;;;22.70;33.90;;;;;;5048776;28;20093;-70
2020/12/16 01:22:39;;;;;;;15.55;9.48;;;22.80;34.00;;;;;;5048740;28;20056;-69
2020/12/16 01:25:06;;;;;;;15.15;9.95;;;22.80;34.00;;;;;;5048729;28;20102;-69
2020/12/16 01:27:35;;;;;;;14.50;9.80;;;22.70;33.90;;;;;;5048369;28;20131;-70
2020/12/16 01:30:05;;;;;;;14.60;9.48;;;22.70;33.90;;;;;;5048190;28;20131;-70
2020/12/16 01:32:36;;;;;;;;;;;22.70;33.90;;;;;;5048235;28;20445;-69
2020/12/16 01:35:04;;;;;;;;;;;22.70;33.90;;;;;;5047874;28;19921;-70
2020/12/16 01:37:31;;;;;;;15.15;9.52;;;22.70;33.90;;;;;;5048358;28;19928;-70
2020/12/16 01:39:58;;;;;;;17.15;10.00;;;22.70;33.90;;;;;;5048451;28;20098;-69
2020/12/16 01:42:25;;;;;;;16.20;9.73;;;22.70;33.90;;;;;;5048292;28;20482;-69
2020/12/16 01:44:51;;;;;;;18.35;10.77;;;22.70;34.00;;;;;;5048263;28;20045;-70
2020/12/16 01:47:18;;;;;;;15.30;9.68;;;22.70;34.00;;;;;;5048073;28;20049;-70
2020/12/16 01:49:46;;;;;;;16.05;9.80;;;22.70;34.00;;;;;;5046756;28;20522;-71
2020/12/16 01:52:19;;;;;;;17.20;9.77;;;22.70;34.00;;;;;;5048179;28;20442;-70
2020/12/16 01:54:47;;;;;;;15.73;9.20;;;22.70;34.00;;;;;;5046332;28;20076;-69
2020/12/16 01:57:18;;;;;;;14.45;9.50;;;22.70;34.60;;;;;;5047777;28;20056;-69
2020/12/16 01:59:47;;;;;;;14.15;9.07;;;22.70;34.00;;;;;;5047732;28;20076;-69
2020/12/16 02:02:16;;;;;;;15.57;9.80;;;22.70;34.00;;;;;;5047467;28;20598;-70
2020/12/16 02:04:45;;;;;;;16.95;10.00;;;22.70;34.00;;;;;;5047710;28;20498;-70
2020/12/16 02:07:14;;;;;;;15.27;9.07;;;22.60;34.00;;;;;;5045478;28;20266;-70
2020/12/16 02:09:44;;;;;;;16.70;10.25;;;22.70;34.00;;;;;;5047654;28;20053;-69
2020/12/16 02:12:16;;;;;;;15.40;9.18;;;22.70;34.00;;;;;;5047387;28;20106;-70
2020/12/16 02:14:43;;;;;;;15.27;9.95;;;22.70;34.00;;;;;;5047742;28;20092;-70
2020/12/16 02:17:11;;;;;;;15.43;9.93;;;22.70;33.90;;;;;;5047187;28;20045;-70
2020/12/16 02:19:43;;;;;;;16.45;9.43;;;22.60;33.90;;;;;;5047555;28;20405;-69
2020/12/16 02:22:11;;;;;;;15.48;9.18;;;22.70;33.90;;;;;;5047332;28;20568;-69
2020/12/16 02:24:40;;;;;;;16.77;9.45;;;22.70;33.90;;;;;;5047593;28;20283;-70
2020/12/16 02:27:09;;;;;;;15.20;9.65;;;22.70;33.90;;;;;;5047780;28;20075;-70
2020/12/16 02:29:36;;;;;;;16.08;9.18;;;22.70;33.90;;;;;;5047633;28;20052;-70
2020/12/16 02:32:03;;;;;;;16.20;9.38;;;22.70;33.90;;;;;;5047039;28;20108;-70
2020/12/16 02:34:30;;;;;;;16.55;9.57;;;22.70;33.90;;;;;;5046365;28;20099;-69
2020/12/16 02:36:57;;;;;;;13.98;9.43;;;22.70;33.90;;;;;;5047224;28;20123;-69
2020/12/16 02:39:24;;;;;;;16.45;10.13;;;22.60;33.80;;;;;;5046992;28;20132;-69
2020/12/16 02:41:58;;;;;;;16.63;10.00;;;22.70;33.90;;;;;;5046955;28;20126;-69
2020/12/16 02:44:25;;;;;;;15.93;9.55;;;22.70;33.90;;;;;;5045160;28;20380;-69
2020/12/16 02:46:52;;;;;;;15.93;10.00;;;22.60;33.90;;;;;;5047319;28;20061;-69
2020/12/16 02:49:18;;;;;;;17.17;10.35;;;22.60;33.90;;;;;;5047278;28;20223;-69
2020/12/16 02:51:45;;;;;;;15.05;9.57;;;22.60;33.90;;;;;;5047523;28;20084;-69
2020/12/16 02:54:12;;;;;;;16.40;9.80;;;22.60;33.90;;;;;;5046051;28;20326;-69
2020/12/16 02:56:38;;;;;;;15.60;10.05;;;22.60;33.90;;;;;;5047400;28;20122;-69
2020/12/16 02:59:05;;;;;;;15.65;9.65;;;22.60;34.00;;;;;;5046882;28;20509;-69
2020/12/16 03:01:32;;;;;;;14.73;9.95;;;22.60;33.90;;;;;;5047023;28;20051;-69
2020/12/16 03:03:59;;;;;;;16.13;10.05;;;22.60;33.90;;;;;;5047239;28;20076;-68
2020/12/16 03:06:25;;;;;;;15.27;8.93;;;22.60;33.90;;;;;;5046120;28;20073;-69
2020/12/16 03:08:52;;;;;;;14.70;9.45;;;22.60;33.90;;;;;;5046986;28;20118;-69
2020/12/16 03:11:18;;;;;;;16.58;10.10;;;22.60;33.90;;;;;;5046985;28;20139;-69
2020/12/16 03:13:45;;;;;;;16.77;10.57;;;22.60;33.90;;;;;;5046912;28;20615;-69
2020/12/16 03:16:18;;;;;;;16.17;10.07;;;22.60;33.90;;;;;;5046971;28;20075;-69
2020/12/16 03:18:45;;;;;;;16.23;9.73;;;22.60;33.80;;;;;;5047218;28;20139;-69
2020/12/16 03:21:11;;;;;;;17.67;9.98;;;22.60;33.80;;;;;;5047046;28;20132;-69
2020/12/16 03:23:38;;;;;;;16.85;10.07;;;22.60;33.80;;;;;;5046643;28;20044;-69
2020/12/16 03:26:05;;;;;;;15.65;9.68;;;22.70;33.90;;;;;;5046466;28;20497;-69
2020/12/16 03:28:32;;;;;;;16.65;9.77;;;22.60;33.80;;;;;;5044472;28;20052;-69
2020/12/16 03:30:59;;;;;;;14.57;9.38;;;22.60;33.80;;;;;;5045493;28;20132;-69
2020/12/16 03:33:26;;;;;;;17.17;9.90;;;22.60;33.80;;;;;;5046931;28;20053;-69
2020/12/16 03:35:52;;;;;;;17.02;9.18;;;22.60;33.80;;;;;;5046543;28;20091;-68
2020/12/16 03:38:19;;;;;;;15.43;9.65;;;22.60;33.80;;;;;;5044760;28;20098;-69
2020/12/16 03:40:45;;;;;;;18.73;11.15;;;22.60;33.80;;;;;;5046930;28;20053;-69
2020/12/16 03:43:12;;;;;;;17.42;10.20;;;22.60;33.80;;;;;;5046286;28;20079;-69
2020/12/16 03:45:38;;;;;;;15.00;9.65;;;22.60;33.90;;;;;;5046720;28;20061;-69
2020/12/16 03:48:05;;;;;;;17.20;10.00;;;22.60;33.80;;;;;;5046780;28;20052;-69
2020/12/16 03:50:33;;;;;;;16.75;9.68;;;22.60;33.80;;;;;;5046944;28;20098;-69
2020/12/16 03:52:59;;;;;;;16.98;10.25;;;22.60;33.80;;;;;;5046656;28;20478;-69
2020/12/16 03:55:26;;;;;;;13.77;9.52;;;22.60;33.80;;;;;;5046819;28;20494;-69
2020/12/16 03:57:53;;;;;;;14.73;9.25;;;22.60;33.80;;;;;;5050017;28;20517;-69
2020/12/16 04:00:19;;;;;;;15.80;9.27;;;22.60;34.40;;;;;;5049881;28;20145;-69
2020/12/16 04:02:46;;;;;;;14.93;9.13;;;22.60;33.80;;;;;;5050263;28;20137;-69
2020/12/16 04:05:12;;;;;;;15.25;9.30;;;22.60;33.90;;;;;;5050315;28;20107;-69
2020/12/16 04:07:40;;;;;;;12.25;8.43;;;22.50;33.80;;;;;;5049741;28;20060;-68
2020/12/16 04:10:08;;;;;;;15.82;10.05;;;22.60;33.90;;;;;;5049832;28;20152;-69
2020/12/16 04:12:35;;;;;;;17.23;10.63;;;22.60;33.90;;;;;;5048590;28;20124;-69
2020/12/16 04:15:01;;;;;;;14.20;9.48;;;22.60;33.90;;;;;;5050270;28;20076;-69
2020/12/16 04:17:32;;;;;;;12.95;9.07;;;22.60;33.80;;;;;;5048660;28;20116;-69
2020/12/16 04:19:59;;;;;;;15.30;9.43;;;22.60;33.80;;;;;;5049895;28;20235;-69
2020/12/16 04:22:28;;;;;;;15.77;9.80;;;22.60;33.80;;;;;;5049828;28;20483;-69
2020/12/16 04:24:56;;;;;;;18.02;10.15;;;22.60;33.70;;;;;;5049639;28;20201;-69
2020/12/16 04:27:26;;;;;;;16.67;9.98;;;22.60;33.70;;;;;;5049906;28;20052;-69
2020/12/16 04:29:52;;;;;;;14.05;9.68;;;22.60;33.70;;;;;;5049667;28;20581;-69
2020/12/16 04:32:19;;;;;;;14.70;9.20;;;22.60;33.80;;;;;;5049110;28;20084;-69
2020/12/16 04:34:45;;;;;;;18.23;10.20;;;22.60;33.80;;;;;;5049793;28;20296;-70
2020/12/16 04:37:12;;;;;;;16.25;9.90;;;22.60;33.80;;;;;;5049419;28;20116;-69
2020/12/16 04:39:38;;;;;;;15.98;10.32;;;22.60;33.80;;;;;;5049519;28;20195;-69
2020/12/16 04:42:05;;;;;;;13.43;8.60;;;22.60;33.80;;;;;;5049128;28;20318;-69
2020/12/16 04:44:33;;;;;;;14.75;9.35;;;22.60;33.80;;;;;;5049621;28;20051;-69
2020/12/16 04:47:00;;;;;;;16.45;9.80;;;22.60;33.80;;;;;;5049609;28;20049;-69
2020/12/16 04:49:27;;;;;;;14.13;9.85;;;22.60;33.80;;;;;;5049479;28;20168;-70
2020/12/16 04:51:54;;;;;;;15.15;8.95;;;22.50;33.80;;;;;;5049146;28;20124;-69
2020/12/16 04:54:21;;;;;;;14.93;9.20;;;22.50;33.80;;;;;;5049490;28;20398;-69
2020/12/16 04:56:48;;;;;;;14.77;9.77;;;22.50;33.80;;;;;;5048901;28;20131;-69
2020/12/16 04:59:14;;;;;;;17.70;9.73;;;22.50;33.80;;;;;;5049323;28;20084;-69
2020/12/16 05:01:42;;;;;;;15.38;9.27;;;22.50;33.90;;;;;;5048184;28;20041;-69
2020/12/16 05:04:09;;;;;;;13.95;9.40;;;22.50;33.80;;;;;;5046905;28;20096;-70
2020/12/16 05:06:39;;;;;;;15.10;9.18;;;22.50;33.80;;;;;;5046029;28;20107;-69
2020/12/16 05:09:12;;;;;;;14.90;9.77;;;22.50;33.80;;;;;;5045455;28;20502;-69
2020/12/16 05:11:48;;;;;;;14.95;9.27;;;22.50;33.80;;;;;;5048699;28;20321;-69
2020/12/16 05:14:21;;;;;;;15.20;9.18;;;22.50;33.80;;;;;;5048814;28;20102;-69
2020/12/16 05:17:02;;;;;;;14.93;9.27;;;22.50;33.80;;;;;;5047138;28;20325;-69
2020/12/16 05:19:41;;;;;;;15.30;9.25;;;22.50;33.80;;;;;;5047807;28;20064;-69
2020/12/16 05:22:31;;;;;;;13.50;9.10;;;22.50;33.80;;;;;;5048607;28;20278;-69
2020/12/16 05:24:59;;;;;;;16.98;9.10;;;22.60;33.80;;;;;;5046734;28;20080;-69
2020/12/16 05:27:28;;;;;;;14.25;9.32;;;22.60;33.80;;;;;;5047883;28;20084;-69
2020/12/16 05:30:01;;;;;;;14.25;9.65;;;22.60;33.80;;;;;;5048424;28;20128;-69
2020/12/16 05:32:30;;;;;;;15.45;9.55;;;22.50;34.30;;;;;;5048145;28;20120;-69
2020/12/16 05:34:59;;;;;;;15.50;9.10;;;22.60;33.80;;;;;;5047688;28;20091;-69
2020/12/16 05:37:34;;;;;;;14.27;9.10;;;22.50;33.70;;;;;;5046910;28;20045;-69
2020/12/16 05:40:13;;;;;;;17.80;9.82;;;22.50;33.80;;;;;;5045052;28;20037;-69
2020/12/16 05:42:45;;;;;;;13.55;9.10;;;22.50;33.70;;;;;;5046817;28;20047;-69
2020/12/16 05:45:16;;;;;;;12.65;8.73;;;22.50;33.80;;;;;;5047752;28;20517;-69
2020/12/16 05:48:00;;;;;;;14.00;8.63;;;22.50;33.80;;;;;;5045451;28;20150;-69
2020/12/16 05:50:37;;;;;;;12.55;8.52;;;22.50;33.80;;;;;;5045515;28;20138;-69
2020/12/16 05:53:22;;;;;;;15.35;9.38;;;22.50;33.80;;;;;;5045846;28;20060;-69
2020/12/16 05:55:56;;;;;;;16.33;9.37;;;22.50;33.80;;;;;;5045941;28;20080;-69
2020/12/16 05:58:25;;;;;;;15.75;9.57;;;22.50;33.80;;;;;;5046451;28;20045;-69
2020/12/16 06:01:00;;;;;;;14.50;8.90;;;22.50;33.90;;;;;;5046083;28;20079;-69
2020/12/16 06:03:38;;;;;;;15.27;9.95;;;22.50;33.80;;;;;;5043734;28;20053;-69
2020/12/16 06:06:10;;;;;;;12.38;8.57;;;22.50;33.90;;;;;;5045994;28;20497;-69
2020/12/16 06:08:42;;;;;;;15.50;9.43;;;22.50;33.80;;;;;;5046571;28;20053;-69
2020/12/16 06:11:11;;;;;;;14.98;9.27;;;22.50;33.80;;;;;;5041024;28;20297;-69
2020/12/16 06:13:39;;;;;;;16.20;9.88;;;22.50;33.80;;;;;;5045312;28;20080;-69
2020/12/16 06:16:07;;;;;;;15.18;10.10;;;22.50;33.70;;;;;;5040618;28;20678;-69
2020/12/16 06:18:37;;;;;;;13.32;9.25;;;22.50;33.60;;;;;;5042947;28;20482;-69
2020/12/16 06:21:06;;;;;;;14.60;8.93;;;22.50;33.60;;;;;;5038188;28;20075;-68
2020/12/16 06:23:37;;;;;;;14.77;9.27;;;22.50;33.50;;;;;;5045650;28;20132;-70
2020/12/16 06:26:12;;;;;;;14.05;9.07;;;22.50;33.50;;;;;;5046905;28;20053;-70
2020/12/16 06:28:41;;;;;;;15.27;9.70;;;22.60;33.60;;;;;;5037553;28;20072;-69
2020/12/16 06:31:29;;;;;;;15.50;9.40;;;22.60;33.50;;;;;;5048854;28;20077;-70
2020/12/16 06:34:03;;;;;;;15.95;9.85;;;22.70;33.50;;;;;;5048844;28;20107;-69
2020/12/16 06:36:37;;;;;;;14.88;9.55;;;22.70;33.50;;;;;;5043421;28;20048;-70
2020/12/16 06:39:15;;;;;;;15.70;9.75;;;22.80;33.40;;;;;;5040989;28;20055;-65
2020/12/16 06:42:00;;;;;;;17.58;9.68;;;22.80;33.30;;;;;;5053323;28;20107;-75
2020/12/16 06:48:34;;;;;;;15.40;9.82;;;22.90;33.20;;;;;;5050021;28;20738;-72
2020/12/16 06:51:20;;;;;;;14.90;10.23;;;23.10;33.20;;;;;;5037872;28;20657;-72
2020/12/16 06:53:48;;;;;;;16.08;10.30;;;23.10;33.10;;;;;;5038772;28;20045;-75
2020/12/16 07:00:18;;;;;;;;;;;23.30;33.20;;;;;;5041187;28;20114;-71
2020/12/16 07:02:44;;;;;;;21.17;10.98;;;23.40;35.00;;;;;;5055963;28;19964;-71
2020/12/16 07:05:37;;;;;;;16.75;11.02;;;23.50;33.80;;;;;;5051569;28;20033;-71
2020/12/16 07:08:04;;;;;;;17.63;11.32;;;23.60;33.20;;;;;;5056021;28;20067;-71
2020/12/16 07:10:44;;;;;;;22.50;12.48;;;23.60;33.00;;;;;;5055767;28;20099;-70
2020/12/16 07:13:17;;;;;;;17.75;11.88;;;23.70;32.80;;;;;;5055613;28;20059;-72
2020/12/16 07:15:53;;;;;;;18.88;11.82;;;23.80;32.60;;;;;;5055812;28;20131;-70
2020/12/16 07:18:45;;;;;;;17.55;10.88;;;23.90;32.50;;;;;;5056051;28;20186;-70
2020/12/16 07:21:24;;;;;;;18.13;11.15;;;24.00;32.50;;;;;;5055856;28;20490;-72
2020/12/16 07:23:57;;;;;;;19.73;12.30;;;24.10;32.50;;;;;;5048626;28;20080;-77
2020/12/16 07:26:33;;;;;;;22.73;11.77;;;24.20;33.20;;;;;;5036361;28;20150;-68
2020/12/16 07:29:18;;;;;;;19.63;10.95;;;24.30;33.30;;;;;;5040505;28;20138;-74
2020/12/16 07:32:10;;;;;;;17.83;11.27;;;24.30;32.90;;;;;;5042787;28;20129;-74
2020/12/16 07:34:54;;;;;;;20.58;11.82;;;24.40;32.50;;;;;;5043476;28;20045;-72
2020/12/16 07:37:23;;;;;;;18.17;11.57;;;24.50;32.30;;;;;;5045074;28;20076;-73
2020/12/16 07:40:04;;;;;;;21.63;12.20;;;24.50;32.20;;;;;;5040103;28;20099;-75
2020/12/16 07:46:22;;;;;;;17.55;11.00;;;24.70;32.00;;;;;;5059369;28;20036;-77
2020/12/16 07:48:49;;;;;;;17.35;11.43;;;24.70;31.90;;;;;;5060149;28;20041;-77
2020/12/16 07:51:18;;;;;;;21.13;12.13;;;24.80;31.80;;;;;;5059312;28;20544;-75
2020/12/16 07:53:50;;;;;;;18.17;11.98;;;24.90;31.80;;;;;;5059614;28;20075;-75
2020/12/16 07:56:20;;;;;;;16.80;11.10;;;24.90;31.60;;;;;;5046410;28;20045;-73
2020/12/16 07:58:47;;;;;;;19.80;12.50;;;24.90;31.60;;;;;;5036794;28;20103;-74
2020/12/16 08:01:16;;;;;;;19.83;11.95;;;25.00;31.50;;;;;;5042047;28;20041;-80
2020/12/16 08:03:43;;;;;;;16.90;11.18;;;25.00;31.50;;;;;;5042150;28;20122;-72
2020/12/16 08:06:11;;;;;;;17.50;10.98;;;25.10;31.50;;;;;;5044138;28;20053;-73
2020/12/16 08:08:48;;;;;;;17.73;11.07;;;25.10;31.50;;;;;;5043393;28;20060;-73
2020/12/16 08:11:17;;;;;;;19.33;11.23;;;25.20;31.50;;;;;;5041840;28;20098;-73
2020/12/16 08:13:43;;;;;;;19.08;12.00;;;25.20;31.40;;;;;;5042947;28;20428;-71
2020/12/16 08:16:12;;;;;;;15.85;10.63;;;25.30;31.30;;;;;;5038645;28;20139;-71
2020/12/16 08:18:47;;;;;;;18.20;11.77;;;25.30;31.20;;;;;;5043940;28;20561;-70
2020/12/16 08:21:21;;;;;;;16.08;11.20;;;25.40;31.10;;;;;;5042141;28;20076;-71
2020/12/16 08:23:49;;;;;;;18.83;12.05;;;25.40;31.10;;;;;;5045425;28;20103;-73
2020/12/16 08:26:24;;;;;;;20.25;12.27;;;25.40;31.00;;;;;;5042605;28;20179;-74
2020/12/16 08:28:51;;;;;;;17.60;11.45;;;25.40;31.00;;;;;;5039866;28;20052;-74
2020/12/16 08:31:31;;;;;;;17.35;11.65;;;25.50;31.00;;;;;;5044868;28;20057;-71
2020/12/16 08:34:01;;;;;;;16.88;11.02;;;25.50;31.00;;;;;;5042397;28;20048;-73
2020/12/16 08:36:34;;;;;;;22.73;12.48;;;25.50;30.90;;;;;;5043843;28;20039;-71
2020/12/16 08:39:05;;;;;;;17.25;12.25;;;25.60;30.90;;;;;;5043703;28;20052;-71
2020/12/16 08:41:35;;;;;;;18.45;12.18;;;25.60;30.90;;;;;;5040783;28;20655;-71
2020/12/16 08:44:05;;;;;;;17.02;12.27;;;25.60;30.90;;;;;;5034599;28;20061;-71
2020/12/16 08:46:39;;;;;;;16.75;11.45;;;25.60;30.80;;;;;;5044049;28;20045;-75
2020/12/16 08:49:06;;;;;;;18.80;11.70;;;25.70;30.80;;;;;;5039212;28;20049;-71
2020/12/16 08:51:39;;;;;;;17.55;11.90;;;25.70;30.70;;;;;;5037337;28;20080;-73
2020/12/16 08:54:09;;;;;;;35.80;12.85;;;25.70;30.70;;;;;;5036661;28;20132;-75
2020/12/16 08:56:45;;;;;;;19.58;12.55;;;25.70;30.70;;;;;;5039688;28;20045;-70
2020/12/16 08:59:25;;;;;;;17.63;11.73;;;25.70;30.60;;;;;;5041471;28;20037;-72
2020/12/16 09:02:09;;;;;;;18.35;12.43;;;25.80;30.60;;;;;;5044042;28;20131;-72
2020/12/16 09:04:39;;;;;;;18.35;12.43;;;25.80;30.60;;;;;;5041324;28;20129;-71
2020/12/16 09:07:22;;;;;;;18.15;11.20;;;25.70;30.50;;;;;;5040630;28;20138;-73
2020/12/16 09:09:58;;;;;;;16.50;11.60;;;25.80;30.40;;;;;;5038441;28;20048;-71
2020/12/16 09:12:25;;;;;;;19.70;11.43;;;25.70;30.30;;;;;;5040918;28;20056;-70
2020/12/16 09:14:55;;;;;;;19.80;12.18;;;25.70;30.30;;;;;;5041693;28;20110;-72
2020/12/16 09:17:38;;;;;;;17.88;11.60;;;25.60;30.30;;;;;;5043276;28;20126;-73
2020/12/16 09:20:11;;;;;;;17.58;12.57;;;25.60;30.40;;;;;;5041121;28;20562;-76
2020/12/16 09:22:38;;;;;;;20.40;12.18;;;25.50;30.30;;;;;;5044001;28;20140;-75
2020/12/16 09:25:04;;;;;;;18.75;12.48;;;25.50;30.60;;;;;;5041898;28;20042;-76
2020/12/16 09:27:54;;;;;;;18.67;12.77;;;25.40;30.70;;;;;;5040560;28;20056;-75
2020/12/16 09:30:26;;;;;;;19.55;12.30;;;25.40;30.90;;;;;;5039235;28;20068;-73
2020/12/16 09:32:53;;;;;;;19.77;12.10;;;25.40;31.00;;;;;;5038033;28;20774;-68
2020/12/16 09:35:21;;;;;;;18.02;11.98;;;25.30;31.00;;;;;;5039735;28;20103;-78
2020/12/16 09:37:48;;;;;;;22.95;13.98;;;25.30;31.20;;;;;;5044232;28;20040;-75
2020/12/16 09:40:18;;;;;;;21.08;12.07;;;25.30;31.50;;;;;;5040328;28;20132;-77
2020/12/16 09:42:58;;;;;;;21.05;12.00;;;25.30;31.60;;;;;;5041108;28;20052;-70
2020/12/16 09:45:24;;;;;;;19.58;12.50;;;25.20;31.60;;;;;;5039498;28;20048;-74
2020/12/16 09:47:52;;;;;;;19.05;13.07;;;25.20;31.70;;;;;;5042490;28;20582;-73
2020/12/16 09:50:28;;;;;;;23.20;12.40;;;25.20;31.70;;;;;;5044072;28;20068;-74
2020/12/16 09:52:57;;;;;;;20.23;12.48;;;25.20;31.80;;;;;;5040178;28;20053;-77
2020/12/16 09:55:24;;;;;;;19.90;12.27;;;25.20;31.80;;;;;;5045654;28;20068;-77
2020/12/16 09:58:06;;;;;;;19.27;12.90;;;25.20;31.80;;;;;;5041636;28;20128;-81
2020/12/16 10:00:35;;;;;;;19.77;13.67;;;25.20;31.90;;;;;;5038644;28;20049;-74
2020/12/16 10:03:18;;;;;;;20.77;12.50;;;25.20;32.10;;;;;;5043583;28;20135;-76
2020/12/16 10:05:45;;;;;;;22.35;13.65;;;25.10;32.00;;;;;;5041128;28;20053;-74
2020/12/16 10:08:15;;;;;;;21.67;12.88;;;25.10;31.80;;;;;;5043641;28;20111;-77
2020/12/16 10:10:44;;;;;;;18.25;12.63;;;25.10;31.80;;;;;;5038463;28;20042;-73
2020/12/16 10:13:11;;;;;;;19.15;12.55;;;25.10;31.80;;;;;;5037004;28;20128;-75
2020/12/16 10:15:38;;;;;;;21.10;13.48;;;25.10;31.70;;;;;;5043340;28;20077;-75
2020/12/16 10:18:04;;;;;;;19.60;12.98;;;25.10;31.60;;;;;;5040095;28;20508;-79
2020/12/16 10:20:32;;;;;;;20.10;13.50;;;25.10;31.60;;;;;;5041397;28;20041;-75
2020/12/16 10:22:59;;;;;;;20.63;13.70;;;25.10;31.60;;;;;;5044063;28;20045;-79
2020/12/16 10:25:27;;;;;;;19.13;12.75;;;25.10;31.60;;;;;;5041158;28;20072;-79
2020/12/16 10:27:54;;;;;;;22.23;14.70;;;25.10;31.60;;;;;;5037050;28;20085;-78
2020/12/16 10:30:24;;;;;;;19.75;13.10;;;25.10;31.60;;;;;;5040720;28;20076;-74
2020/12/16 10:32:53;;;;;;;18.08;11.95;;;25.10;31.50;;;;;;5042430;28;20045;-72
2020/12/16 10:35:21;;;;;;;19.80;13.82;;;25.10;31.60;;;;;;5042455;28;20866;-70
2020/12/16 10:37:48;;;;;;;19.65;12.57;;;25.10;31.60;;;;;;5042334;28;20114;-72
2020/12/16 10:40:14;;;;;;;19.83;13.35;;;25.00;31.50;;;;;;5040057;28;20048;-71
2020/12/16 10:42:41;;;;;;;21.15;13.60;;;25.00;31.60;;;;;;5041837;28;20453;-71
2020/12/16 10:45:08;;;;;;;20.88;13.85;;;25.00;31.50;;;;;;5044132;28;20041;-72
2020/12/16 10:47:35;;;;;;;21.23;14.15;;;25.00;31.50;;;;;;5042218;28;20137;-69
2020/12/16 10:50:03;;;;;;;21.15;13.32;;;25.00;31.50;;;;;;5034789;28;20100;-71
2020/12/16 10:52:30;;;;;;;20.88;13.95;;;25.00;31.50;;;;;;5042013;28;20037;-72
2020/12/16 10:54:56;;;;;;;21.02;13.88;;;24.90;31.40;;;;;;5034642;28;20087;-73
2020/12/16 10:57:24;;;;;;;23.65;14.90;;;24.90;31.30;;;;;;5040155;28;20049;-73
2020/12/16 10:59:54;;;;;;;21.52;14.70;;;24.90;31.30;;;;;;5041858;28;20475;-73
2020/12/16 11:02:20;;;;;;;23.02;14.90;;;24.90;31.40;;;;;;5039841;28;20131;-74
2020/12/16 11:04:48;;;;;;;29.73;15.18;;;24.90;31.40;;;;;;5044335;28;20577;-75
2020/12/16 11:07:14;;;;;;;23.20;14.77;;;24.90;31.40;;;;;;5044349;28;20483;-75
2020/12/16 11:09:41;;;;;;;23.30;14.52;;;24.90;31.30;;;;;;5047399;28;20124;-71
2020/12/16 11:12:07;;;;;;;23.40;14.65;;;24.90;31.30;;;;;;5046149;28;20105;-75
2020/12/16 11:14:34;;;;;;;22.52;14.55;;;24.90;31.20;;;;;;5046938;28;20084;-72
2020/12/16 11:17:04;;;;;;;25.83;15.75;;;24.90;31.20;;;;;;5043128;28;20061;-75
2020/12/16 11:19:32;;;;;;;24.70;15.80;;;24.90;31.20;;;;;;5046275;28;20072;-74
2020/12/16 11:21:59;;;;;;;23.92;15.57;;;24.90;31.80;;;;;;5044521;28;20045;-71
2020/12/16 11:24:27;;;;;;;21.98;14.93;;;24.90;31.10;;;;;;5042374;28;20159;-73
2020/12/16 11:26:55;;;;;;;26.75;16.27;;;24.90;31.10;;;;;;5044718;28;20041;-79
2020/12/16 11:29:23;;;;;;;24.23;15.60;;;24.90;31.10;;;;;;5045464;28;20076;-74
2020/12/16 11:32:17;;;;;;;26.98;16.92;;;24.90;31.10;;;;;;5048930;28;20410;-74
2020/12/16 11:34:46;;;;;;;26.65;16.58;;;24.90;31.10;;;;;;5055844;28;20053;-72
2020/12/16 11:37:14;;;;;;;25.10;16.05;;;24.90;31.20;;;;;;5043496;28;20657;-74
2020/12/16 11:39:42;;;;;;;22.75;16.08;;;24.90;31.20;;;;;;5039578;28;20072;-73
2020/12/16 11:42:09;;;;;;;26.52;15.93;;;24.90;31.10;;;;;;5057021;28;20098;-71
2020/12/16 11:44:52;;;;;;;28.00;16.33;;;24.90;31.00;;;;;;5059748;28;20048;-76
2020/12/16 11:47:18;;;;;;;25.60;16.75;;;24.90;30.80;;;;;;5059397;28;20413;-71
2020/12/16 11:49:45;;;;;;;27.38;16.70;;;24.90;30.70;;;;;;5059464;28;20053;-72
2020/12/16 11:52:12;;;;;;;23.20;15.10;;;24.90;30.70;;;;;;5049178;28;20088;-72
2020/12/16 11:54:38;;;;;;;26.40;16.60;;;25.00;30.80;;;;;;5044703;28;20131;-73
2020/12/16 11:57:05;;;;;;;25.67;16.98;;;25.00;30.80;;;;;;5044904;28;20049;-74
2020/12/16 11:59:32;;;;;;;25.17;15.93;;;25.00;30.70;;;;;;5044882;28;20044;-75
2020/12/16 12:02:02;;;;;;;26.13;16.00;;;25.00;30.70;;;;;;5044111;28;20752;-73
2020/12/16 12:04:30;;;;;;;26.77;16.95;;;25.00;30.80;;;;;;5025691;28;20144;-72
2020/12/16 12:06:56;;;;;;;26.90;16.38;;;25.00;30.70;;;;;;5043227;28;20041;-74
2020/12/16 12:09:24;;;;;;;23.60;15.10;;;25.00;30.70;;;;;;5040776;28;20128;-72
2020/12/16 12:11:52;;;;;;;28.00;16.25;;;25.00;30.60;;;;;;5045005;28;20060;-73
2020/12/16 12:14:20;;;;;;;25.65;16.58;;;25.00;30.50;;;;;;5045090;28;20049;-74
2020/12/16 12:16:48;;;;;;;24.65;15.43;;;24.90;30.40;;;;;;5040192;28;20081;-72
2020/12/16 12:19:15;;;;;;;25.20;15.93;;;24.90;30.40;;;;;;5042991;28;20084;-72
2020/12/16 12:21:42;;;;;;;26.27;16.10;;;24.90;30.40;;;;;;5042584;28;20134;-74
2020/12/16 12:24:09;;;;;;;24.90;15.95;;;24.90;30.40;;;;;;5042140;28;20048;-74
2020/12/16 12:26:36;;;;;;;24.15;15.00;;;25.00;30.70;;;;;;5044603;28;20069;-73
2020/12/16 12:29:03;;;;;;;24.42;16.08;;;25.00;31.00;;;;;;5042711;28;20048;-70
2020/12/16 12:31:30;;;;;;;25.75;16.02;;;24.90;31.00;;;;;;5036690;28;20080;-73
2020/12/16 12:33:56;;;;;;;24.55;15.48;;;24.90;31.20;;;;;;5037541;28;20076;-72
2020/12/16 12:36:24;;;;;;;25.70;16.88;;;24.90;31.50;;;;;;5044240;28;20448;-75
2020/12/16 12:38:55;;;;;;;23.42;15.40;;;24.90;31.70;;;;;;5041606;28;20068;-71
2020/12/16 12:41:23;;;;;;;23.75;15.50;;;24.90;31.70;;;;;;5042486;28;20052;-71
2020/12/16 12:43:49;;;;;;;24.73;15.25;;;24.90;31.80;;;;;;5044022;28;20084;-71
2020/12/16 12:46:16;;;;;;;26.48;16.60;;;24.90;31.80;;;;;;5044040;28;20508;-74
2020/12/16 12:48:44;;;;;;;25.00;16.35;;;24.90;31.80;;;;;;5044844;28;20069;-72
2020/12/16 12:51:12;;;;;;;24.48;16.13;;;24.90;31.70;;;;;;5044340;28;20051;-72
2020/12/16 12:53:58;;;;;;;24.85;15.55;;;24.90;31.70;;;;;;5040412;28;20041;-74
2020/12/16 12:56:26;;;;;;;23.95;15.23;;;24.90;31.80;;;;;;5044387;28;20135;-72
2020/12/16 12:58:57;;;;;;;24.45;15.50;;;24.90;31.90;;;;;;5041847;28;20124;-72